sensor_id;sensor_type;location;lat;lon;timestamp;temperature;humidity
61641;HTU21D;62201;49.966;8.342;2022-09-03T00:02:23;18.09;47.40
61641;HTU21D;62201;49.966;8.342;2022-09-03T00:05:07;18.08;47.45
61641;HTU21D;62201;49.966;8.342;2022-09-03T00:10:46;18.04;47.65
61641;HTU21D;62201;49.966;8.342;2022-09-03T00:13:21;18.04;47.63
61641;HTU21D;62201;49.966;8.342;2022-09-03T00:15:47;18.05;47.54
61641;HTU21D;62201;49.966;8.342;2022-09-03T00:18:16;18.03;47.64
61641;HTU21D;62201;49.966;8.342;2022-09-03T00:20:50;17.97;47.74
61641;HTU21D;62201;49.966;8.342;2022-09-03T00:23:26;17.94;47.91
61641;HTU21D;62201;49.966;8.342;2022-09-03T00:28:33;17.87;48.19
61641;HTU21D;62201;49.966;8.342;2022-09-03T00:31:24;17.82;48.41
61641;HTU21D;62201;49.966;8.342;2022-09-03T00:33:54;17.83;48.34
61641;HTU21D;62201;49.966;8.342;2022-09-03T00:36:30;17.84;48.28
61641;HTU21D;62201;49.966;8.342;2022-09-03T00:38:57;17.81;48.39
61641;HTU21D;62201;49.966;8.342;2022-09-03T00:41:36;17.85;48.44
61641;HTU21D;62201;49.966;8.342;2022-09-03T00:47:10;17.82;48.53
61641;HTU21D;62201;49.966;8.342;2022-09-03T00:53:09;17.80;48.60
61641;HTU21D;62201;49.966;8.342;2022-09-03T01:01:53;17.80;48.76
61641;HTU21D;62201;49.966;8.342;2022-09-03T01:04:41;17.80;48.82
61641;HTU21D;62201;49.966;8.342;2022-09-03T01:07:39;17.79;48.91
61641;HTU21D;62201;49.966;8.342;2022-09-03T01:13:01;17.77;48.96
61641;HTU21D;62201;49.966;8.342;2022-09-03T01:18:59;17.70;49.18
61641;HTU21D;62201;49.966;8.342;2022-09-03T01:24:46;17.70;49.25
61641;HTU21D;62201;49.966;8.342;2022-09-03T01:30:20;17.68;49.54
61641;HTU21D;62201;49.966;8.342;2022-09-03T01:33:16;17.69;49.62
61641;HTU21D;62201;49.966;8.342;2022-09-03T01:35:49;17.72;49.61
61641;HTU21D;62201;49.966;8.342;2022-09-03T01:38:36;17.70;49.79
61641;HTU21D;62201;49.966;8.342;2022-09-03T01:44:20;17.76;49.76
61641;HTU21D;62201;49.966;8.342;2022-09-03T01:46:58;17.80;49.66
61641;HTU21D;62201;49.966;8.342;2022-09-03T01:49:33;17.80;49.57
61641;HTU21D;62201;49.966;8.342;2022-09-03T01:52:10;17.82;49.53
61641;HTU21D;62201;49.966;8.342;2022-09-03T01:54:46;17.84;49.51
61641;HTU21D;62201;49.966;8.342;2022-09-03T01:57:44;17.85;49.43
61641;HTU21D;62201;49.966;8.342;2022-09-03T02:00:18;17.89;49.41
61641;HTU21D;62201;49.966;8.342;2022-09-03T02:02:49;17.89;49.36
61641;HTU21D;62201;49.966;8.342;2022-09-03T02:05:21;17.91;49.25
61641;HTU21D;62201;49.966;8.342;2022-09-03T02:07:56;17.92;49.24
61641;HTU21D;62201;49.966;8.342;2022-09-03T02:13:07;17.96;48.92
61641;HTU21D;62201;49.966;8.342;2022-09-03T02:15:36;17.99;48.89
61641;HTU21D;62201;49.966;8.342;2022-09-03T02:18:04;17.99;48.82
61641;HTU21D;62201;49.966;8.342;2022-09-03T02:20:30;17.98;48.72
61641;HTU21D;62201;49.966;8.342;2022-09-03T02:22:57;17.98;48.76
61641;HTU21D;62201;49.966;8.342;2022-09-03T02:25:28;18.02;48.65
61641;HTU21D;62201;49.966;8.342;2022-09-03T02:27:54;17.99;48.68
61641;HTU21D;62201;49.966;8.342;2022-09-03T02:30:19;17.99;48.70
61641;HTU21D;62201;49.966;8.342;2022-09-03T02:32:45;17.97;48.74
61641;HTU21D;62201;49.966;8.342;2022-09-03T02:35:10;17.95;48.85
61641;HTU21D;62201;49.966;8.342;2022-09-03T02:37:37;17.94;48.92
61641;HTU21D;62201;49.966;8.342;2022-09-03T02:40:03;17.95;48.89
61641;HTU21D;62201;49.966;8.342;2022-09-03T02:42:34;17.95;48.92
61641;HTU21D;62201;49.966;8.342;2022-09-03T02:45:16;17.93;49.01
61641;HTU21D;62201;49.966;8.342;2022-09-03T02:47:46;17.93;49.01
61641;HTU21D;62201;49.966;8.342;2022-09-03T02:50:14;17.93;49.15
61641;HTU21D;62201;49.966;8.342;2022-09-03T02:52:39;17.90;49.19
61641;HTU21D;62201;49.966;8.342;2022-09-03T02:55:05;17.91;49.18
61641;HTU21D;62201;49.966;8.342;2022-09-03T02:57:30;17.89;49.28
61641;HTU21D;62201;49.966;8.342;2022-09-03T02:59:56;17.89;49.30
61641;HTU21D;62201;49.966;8.342;2022-09-03T03:02:21;17.90;49.27
61641;HTU21D;62201;49.966;8.342;2022-09-03T03:04:46;17.87;49.30
61641;HTU21D;62201;49.966;8.342;2022-09-03T03:07:12;17.88;49.33
61641;HTU21D;62201;49.966;8.342;2022-09-03T03:09:37;17.88;49.35
61641;HTU21D;62201;49.966;8.342;2022-09-03T03:12:02;17.88;49.41
61641;HTU21D;62201;49.966;8.342;2022-09-03T03:14:28;17.87;49.49
61641;HTU21D;62201;49.966;8.342;2022-09-03T03:16:53;17.84;49.53
61641;HTU21D;62201;49.966;8.342;2022-09-03T03:19:19;17.87;49.52
61641;HTU21D;62201;49.966;8.342;2022-09-03T03:21:44;17.85;49.63
61641;HTU21D;62201;49.966;8.342;2022-09-03T03:24:10;17.84;49.73
61641;HTU21D;62201;49.966;8.342;2022-09-03T03:26:35;17.82;49.74
61641;HTU21D;62201;49.966;8.342;2022-09-03T03:29:01;17.82;49.76
61641;HTU21D;62201;49.966;8.342;2022-09-03T03:31:30;17.81;49.91
61641;HTU21D;62201;49.966;8.342;2022-09-03T03:33:58;17.81;49.86
61641;HTU21D;62201;49.966;8.342;2022-09-03T03:36:27;17.80;49.99
61641;HTU21D;62201;49.966;8.342;2022-09-03T03:38:54;17.80;50.10
61641;HTU21D;62201;49.966;8.342;2022-09-03T03:41:22;17.77;50.10
61641;HTU21D;62201;49.966;8.342;2022-09-03T03:43:54;17.77;50.24
61641;HTU21D;62201;49.966;8.342;2022-09-03T03:46:24;17.75;50.30
61641;HTU21D;62201;49.966;8.342;2022-09-03T03:48:52;17.75;50.45
61641;HTU21D;62201;49.966;8.342;2022-09-03T03:51:18;17.72;50.52
61641;HTU21D;62201;49.966;8.342;2022-09-03T03:53:44;17.69;50.53
61641;HTU21D;62201;49.966;8.342;2022-09-03T03:56:12;17.68;50.67
61641;HTU21D;62201;49.966;8.342;2022-09-03T03:58:39;17.70;50.60
61641;HTU21D;62201;49.966;8.342;2022-09-03T04:01:17;17.69;50.66
61641;HTU21D;62201;49.966;8.342;2022-09-03T04:03:44;17.67;50.71
61641;HTU21D;62201;49.966;8.342;2022-09-03T04:06:11;17.64;50.84
61641;HTU21D;62201;49.966;8.342;2022-09-03T04:08:39;17.61;51.07
61641;HTU21D;62201;49.966;8.342;2022-09-03T04:11:07;17.54;51.27
61641;HTU21D;62201;49.966;8.342;2022-09-03T04:13:35;17.50;51.52
61641;HTU21D;62201;49.966;8.342;2022-09-03T04:16:21;17.48;51.74
61641;HTU21D;62201;49.966;8.342;2022-09-03T04:18:47;17.44;51.82
61641;HTU21D;62201;49.966;8.342;2022-09-03T04:21:24;17.41;51.97
61641;HTU21D;62201;49.966;8.342;2022-09-03T04:23:51;17.37;52.06
61641;HTU21D;62201;49.966;8.342;2022-09-03T04:26:19;17.35;52.37
61641;HTU21D;62201;49.966;8.342;2022-09-03T04:28:45;17.29;52.38
61641;HTU21D;62201;49.966;8.342;2022-09-03T04:31:12;17.28;52.52
61641;HTU21D;62201;49.966;8.342;2022-09-03T04:33:38;17.25;52.53
61641;HTU21D;62201;49.966;8.342;2022-09-03T04:36:25;17.23;52.85
61641;HTU21D;62201;49.966;8.342;2022-09-03T04:38:53;17.21;52.84
61641;HTU21D;62201;49.966;8.342;2022-09-03T04:41:20;17.21;52.97
61641;HTU21D;62201;49.966;8.342;2022-09-03T04:43:49;17.22;52.94
61641;HTU21D;62201;49.966;8.342;2022-09-03T04:46:14;17.23;53.06
61641;HTU21D;62201;49.966;8.342;2022-09-03T04:48:41;17.21;52.98
61641;HTU21D;62201;49.966;8.342;2022-09-03T04:51:13;17.24;53.10
61641;HTU21D;62201;49.966;8.342;2022-09-03T04:53:40;17.29;53.05
61641;HTU21D;62201;49.966;8.342;2022-09-03T04:56:27;17.33;53.06
61641;HTU21D;62201;49.966;8.342;2022-09-03T04:59:02;17.35;53.03
61641;HTU21D;62201;49.966;8.342;2022-09-03T05:01:30;17.38;52.98
61641;HTU21D;62201;49.966;8.342;2022-09-03T05:03:56;17.43;52.97
61641;HTU21D;62201;49.966;8.342;2022-09-03T05:06:22;17.46;52.94
61641;HTU21D;62201;49.966;8.342;2022-09-03T05:08:50;17.50;52.85
61641;HTU21D;62201;49.966;8.342;2022-09-03T05:11:16;17.52;52.98
61641;HTU21D;62201;49.966;8.342;2022-09-03T05:13:42;17.55;52.89
61641;HTU21D;62201;49.966;8.342;2022-09-03T05:16:10;17.56;52.80
61641;HTU21D;62201;49.966;8.342;2022-09-03T05:18:37;17.59;52.89
61641;HTU21D;62201;49.966;8.342;2022-09-03T05:21:08;17.58;52.98
61641;HTU21D;62201;49.966;8.342;2022-09-03T05:23:39;17.58;53.03
61641;HTU21D;62201;49.966;8.342;2022-09-03T05:26:07;17.56;53.15
61641;HTU21D;62201;49.966;8.342;2022-09-03T05:28:34;17.60;53.17
61641;HTU21D;62201;49.966;8.342;2022-09-03T05:31:02;17.60;53.23
61641;HTU21D;62201;49.966;8.342;2022-09-03T05:33:28;17.62;53.44
61641;HTU21D;62201;49.966;8.342;2022-09-03T05:36:00;17.60;54.13
61641;HTU21D;62201;49.966;8.342;2022-09-03T05:38:26;17.54;54.68
61641;HTU21D;62201;49.966;8.342;2022-09-03T05:40:51;17.54;55.04
61641;HTU21D;62201;49.966;8.342;2022-09-03T05:43:17;17.54;55.23
61641;HTU21D;62201;49.966;8.342;2022-09-03T05:45:42;17.51;55.39
61641;HTU21D;62201;49.966;8.342;2022-09-03T05:48:07;17.50;55.42
61641;HTU21D;62201;49.966;8.342;2022-09-03T05:50:33;17.51;55.50
61641;HTU21D;62201;49.966;8.342;2022-09-03T05:52:59;17.49;55.56
61641;HTU21D;62201;49.966;8.342;2022-09-03T05:55:24;17.53;55.58
61641;HTU21D;62201;49.966;8.342;2022-09-03T05:57:52;17.52;55.59
61641;HTU21D;62201;49.966;8.342;2022-09-03T06:00:18;17.50;55.56
61641;HTU21D;62201;49.966;8.342;2022-09-03T06:02:49;17.52;55.78
61641;HTU21D;62201;49.966;8.342;2022-09-03T06:05:15;17.58;55.81
61641;HTU21D;62201;49.966;8.342;2022-09-03T06:07:41;17.61;55.98
61641;HTU21D;62201;49.966;8.342;2022-09-03T06:10:06;17.65;55.81
61641;HTU21D;62201;49.966;8.342;2022-09-03T06:12:32;17.66;55.73
61641;HTU21D;62201;49.966;8.342;2022-09-03T06:14:57;17.62;55.74
61641;HTU21D;62201;49.966;8.342;2022-09-03T06:17:23;17.66;55.68
61641;HTU21D;62201;49.966;8.342;2022-09-03T06:19:48;17.74;55.61
61641;HTU21D;62201;49.966;8.342;2022-09-03T06:22:13;17.81;55.68
61641;HTU21D;62201;49.966;8.342;2022-09-03T06:24:39;17.64;57.77
61641;HTU21D;62201;49.966;8.342;2022-09-03T06:27:04;17.48;59.49
61641;HTU21D;62201;49.966;8.342;2022-09-03T06:29:29;17.41;61.09
61641;HTU21D;62201;49.966;8.342;2022-09-03T06:31:55;17.38;61.40
61641;HTU21D;62201;49.966;8.342;2022-09-03T06:34:21;17.36;61.27
61641;HTU21D;62201;49.966;8.342;2022-09-03T06:36:49;17.38;62.54
61641;HTU21D;62201;49.966;8.342;2022-09-03T06:39:16;17.41;62.76
61641;HTU21D;62201;49.966;8.342;2022-09-03T06:41:42;17.44;62.38
61641;HTU21D;62201;49.966;8.342;2022-09-03T06:44:09;17.41;62.94
61641;HTU21D;62201;49.966;8.342;2022-09-03T06:46:40;17.41;62.37
61641;HTU21D;62201;49.966;8.342;2022-09-03T06:49:09;17.43;62.81
61641;HTU21D;62201;49.966;8.342;2022-09-03T06:51:35;17.40;62.17
61641;HTU21D;62201;49.966;8.342;2022-09-03T06:54:09;17.40;62.10
61641;HTU21D;62201;49.966;8.342;2022-09-03T06:56:36;17.38;62.31
61641;HTU21D;62201;49.966;8.342;2022-09-03T06:59:13;17.40;62.50
61641;HTU21D;62201;49.966;8.342;2022-09-03T07:01:39;17.40;62.55
61641;HTU21D;62201;49.966;8.342;2022-09-03T07:04:06;17.41;62.99
61641;HTU21D;62201;49.966;8.342;2022-09-03T07:06:35;17.38;63.59
61641;HTU21D;62201;49.966;8.342;2022-09-03T07:09:08;17.35;64.22
61641;HTU21D;62201;49.966;8.342;2022-09-03T07:11:35;17.34;64.79
61641;HTU21D;62201;49.966;8.342;2022-09-03T07:14:03;17.25;65.67
61641;HTU21D;62201;49.966;8.342;2022-09-03T07:16:32;17.10;66.71
61641;HTU21D;62201;49.966;8.342;2022-09-03T07:18:58;17.05;67.68
61641;HTU21D;62201;49.966;8.342;2022-09-03T07:21:27;16.95;68.59
61641;HTU21D;62201;49.966;8.342;2022-09-03T07:23:54;16.92;69.39
61641;HTU21D;62201;49.966;8.342;2022-09-03T07:26:25;16.89;69.99
61641;HTU21D;62201;49.966;8.342;2022-09-03T07:28:52;16.91;70.73
61641;HTU21D;62201;49.966;8.342;2022-09-03T07:31:27;16.87;71.29
61641;HTU21D;62201;49.966;8.342;2022-09-03T07:33:57;16.80;71.74
61641;HTU21D;62201;49.966;8.342;2022-09-03T07:36:26;16.73;72.67
61641;HTU21D;62201;49.966;8.342;2022-09-03T07:38:57;16.64;74.13
61641;HTU21D;62201;49.966;8.342;2022-09-03T07:41:24;16.63;73.68
61641;HTU21D;62201;49.966;8.342;2022-09-03T07:43:50;16.62;74.27
61641;HTU21D;62201;49.966;8.342;2022-09-03T07:46:20;16.58;74.75
61641;HTU21D;62201;49.966;8.342;2022-09-03T07:48:50;16.51;75.19
61641;HTU21D;62201;49.966;8.342;2022-09-03T07:51:17;16.60;75.64
61641;HTU21D;62201;49.966;8.342;2022-09-03T07:53:47;16.69;76.15
61641;HTU21D;62201;49.966;8.342;2022-09-03T07:56:13;16.84;75.62
61641;HTU21D;62201;49.966;8.342;2022-09-03T07:58:39;16.95;74.89
61641;HTU21D;62201;49.966;8.342;2022-09-03T08:01:11;16.95;75.11
61641;HTU21D;62201;49.966;8.342;2022-09-03T08:03:41;17.01;74.71
61641;HTU21D;62201;49.966;8.342;2022-09-03T08:06:07;17.29;74.76
61641;HTU21D;62201;49.966;8.342;2022-09-03T08:08:34;17.44;74.92
61641;HTU21D;62201;49.966;8.342;2022-09-03T08:11:07;17.96;73.38
61641;HTU21D;62201;49.966;8.342;2022-09-03T08:13:42;18.39;72.13
61641;HTU21D;62201;49.966;8.342;2022-09-03T08:16:08;18.36;69.49
61641;HTU21D;62201;49.966;8.342;2022-09-03T08:18:35;18.52;70.90
61641;HTU21D;62201;49.966;8.342;2022-09-03T08:21:14;18.51;69.14
61641;HTU21D;62201;49.966;8.342;2022-09-03T08:23:42;18.58;69.65
61641;HTU21D;62201;49.966;8.342;2022-09-03T08:26:08;18.57;68.57
61641;HTU21D;62201;49.966;8.342;2022-09-03T08:28:34;18.42;66.72
61641;HTU21D;62201;49.966;8.342;2022-09-03T08:31:05;18.66;68.13
61641;HTU21D;62201;49.966;8.342;2022-09-03T08:33:30;19.20;67.36
61641;HTU21D;62201;49.966;8.342;2022-09-03T08:36:07;19.15;66.09
61641;HTU21D;62201;49.966;8.342;2022-09-03T08:38:33;18.83;66.85
61641;HTU21D;62201;49.966;8.342;2022-09-03T08:41:13;18.81;67.17
61641;HTU21D;62201;49.966;8.342;2022-09-03T08:44:03;18.92;67.80
61641;HTU21D;62201;49.966;8.342;2022-09-03T08:46:46;18.95;68.27
61641;HTU21D;62201;49.966;8.342;2022-09-03T08:49:15;18.88;67.89
61641;HTU21D;62201;49.966;8.342;2022-09-03T08:51:44;18.82;68.24
61641;HTU21D;62201;49.966;8.342;2022-09-03T08:54:12;18.78;68.20
61641;HTU21D;62201;49.966;8.342;2022-09-03T08:56:39;18.80;68.70
61641;HTU21D;62201;49.966;8.342;2022-09-03T08:59:07;18.68;68.97
61641;HTU21D;62201;49.966;8.342;2022-09-03T09:01:51;18.74;68.19
61641;HTU21D;62201;49.966;8.342;2022-09-03T09:07:31;18.81;68.23
61641;HTU21D;62201;49.966;8.342;2022-09-03T09:10:04;18.59;68.24
61641;HTU21D;62201;49.966;8.342;2022-09-03T09:12:44;18.38;68.39
61641;HTU21D;62201;49.966;8.342;2022-09-03T09:15:26;18.46;68.73
61641;HTU21D;62201;49.966;8.342;2022-09-03T09:18:13;18.79;68.60
61641;HTU21D;62201;49.966;8.342;2022-09-03T09:20:56;18.72;67.80
61641;HTU21D;62201;49.966;8.342;2022-09-03T09:23:33;18.55;68.97
61641;HTU21D;62201;49.966;8.342;2022-09-03T09:26:05;18.54;68.32
61641;HTU21D;62201;49.966;8.342;2022-09-03T09:28:35;18.61;68.37
61641;HTU21D;62201;49.966;8.342;2022-09-03T09:31:03;18.58;68.54
61641;HTU21D;62201;49.966;8.342;2022-09-03T09:33:30;18.65;68.37
61641;HTU21D;62201;49.966;8.342;2022-09-03T09:36:07;18.55;68.04
61641;HTU21D;62201;49.966;8.342;2022-09-03T09:38:35;18.65;67.86
61641;HTU21D;62201;49.966;8.342;2022-09-03T09:41:12;19.06;68.37
61641;HTU21D;62201;49.966;8.342;2022-09-03T09:43:39;19.47;66.75
61641;HTU21D;62201;49.966;8.342;2022-09-03T09:46:20;19.61;64.81
61641;HTU21D;62201;49.966;8.342;2022-09-03T09:48:51;19.74;65.39
61641;HTU21D;62201;49.966;8.342;2022-09-03T09:51:25;20.13;63.77
61641;HTU21D;62201;49.966;8.342;2022-09-03T09:54:17;20.03;63.12
61641;HTU21D;62201;49.966;8.342;2022-09-03T09:56:45;19.95;63.64
61641;HTU21D;62201;49.966;8.342;2022-09-03T09:59:12;20.27;63.25
61641;HTU21D;62201;49.966;8.342;2022-09-03T10:01:41;20.51;62.89
61641;HTU21D;62201;49.966;8.342;2022-09-03T10:04:30;20.44;62.35
61641;HTU21D;62201;49.966;8.342;2022-09-03T10:09:29;20.44;62.55
61641;HTU21D;62201;49.966;8.342;2022-09-03T10:12:08;20.79;62.08
61641;HTU21D;62201;49.966;8.342;2022-09-03T10:14:43;21.49;60.62
61641;HTU21D;62201;49.966;8.342;2022-09-03T10:17:20;21.96;58.14
61641;HTU21D;62201;49.966;8.342;2022-09-03T10:23:10;22.78;55.57
61641;HTU21D;62201;49.966;8.342;2022-09-03T10:28:10;22.90;55.63
61641;HTU21D;62201;49.966;8.342;2022-09-03T10:30:47;23.31;52.78
61641;HTU21D;62201;49.966;8.342;2022-09-03T10:33:18;22.54;55.76
61641;HTU21D;62201;49.966;8.342;2022-09-03T10:35:52;22.63;55.68
61641;HTU21D;62201;49.966;8.342;2022-09-03T10:38:27;22.39;56.19
61641;HTU21D;62201;49.966;8.342;2022-09-03T10:40:57;22.12;56.96
61641;HTU21D;62201;49.966;8.342;2022-09-03T10:46:15;22.09;57.45
61641;HTU21D;62201;49.966;8.342;2022-09-03T10:51:18;22.09;57.51
61641;HTU21D;62201;49.966;8.342;2022-09-03T10:53:59;22.05;58.10
61641;HTU21D;62201;49.966;8.342;2022-09-03T10:56:40;22.42;56.52
61641;HTU21D;62201;49.966;8.342;2022-09-03T10:59:34;22.52;57.55
61641;HTU21D;62201;49.966;8.342;2022-09-03T11:02:23;22.67;56.81
61641;HTU21D;62201;49.966;8.342;2022-09-03T11:07:26;23.16;55.81
61641;HTU21D;62201;49.966;8.342;2022-09-03T11:10:09;23.17;55.63
61641;HTU21D;62201;49.966;8.342;2022-09-03T11:12:41;23.15;55.36
61641;HTU21D;62201;49.966;8.342;2022-09-03T11:15:23;22.99;55.78
61641;HTU21D;62201;49.966;8.342;2022-09-03T11:17:54;22.98;56.11
61641;HTU21D;62201;49.966;8.342;2022-09-03T11:20:23;22.67;56.71
61641;HTU21D;62201;49.966;8.342;2022-09-03T11:22:51;22.99;56.13
61641;HTU21D;62201;49.966;8.342;2022-09-03T11:25:19;22.58;57.10
61641;HTU21D;62201;49.966;8.342;2022-09-03T11:33:40;23.13;56.23
61641;HTU21D;62201;49.966;8.342;2022-09-03T11:36:09;24.36;53.24
61641;HTU21D;62201;49.966;8.342;2022-09-03T11:38:35;24.09;53.78
61641;HTU21D;62201;49.966;8.342;2022-09-03T11:41:13;23.79;54.06
61641;HTU21D;62201;49.966;8.342;2022-09-03T11:43:41;23.74;54.34
61641;HTU21D;62201;49.966;8.342;2022-09-03T11:48:48;24.53;52.72
61641;HTU21D;62201;49.966;8.342;2022-09-03T11:54:00;25.07;50.93
61641;HTU21D;62201;49.966;8.342;2022-09-03T11:56:27;24.89;51.53
61641;HTU21D;62201;49.966;8.342;2022-09-03T12:04:19;25.28;51.44
61641;HTU21D;62201;49.966;8.342;2022-09-03T12:09:38;24.41;52.98
61641;HTU21D;62201;49.966;8.342;2022-09-03T12:12:42;24.44;52.90
61641;HTU21D;62201;49.966;8.342;2022-09-03T12:17:56;24.71;52.40
61641;HTU21D;62201;49.966;8.342;2022-09-03T12:20:42;25.06;52.15
61641;HTU21D;62201;49.966;8.342;2022-09-03T12:23:12;25.29;51.38
61641;HTU21D;62201;49.966;8.342;2022-09-03T12:25:44;25.67;50.49
61641;HTU21D;62201;49.966;8.342;2022-09-03T12:28:19;26.65;48.48
61641;HTU21D;62201;49.966;8.342;2022-09-03T12:30:47;26.30;48.94
61641;HTU21D;62201;49.966;8.342;2022-09-03T12:33:16;25.86;49.94
61641;HTU21D;62201;49.966;8.342;2022-09-03T12:35:42;25.87;49.66
61641;HTU21D;62201;49.966;8.342;2022-09-03T12:38:08;26.03;49.53
61641;HTU21D;62201;49.966;8.342;2022-09-03T12:40:33;26.25;48.76
61641;HTU21D;62201;49.966;8.342;2022-09-03T12:43:13;26.67;47.72
61641;HTU21D;62201;49.966;8.342;2022-09-03T12:45:44;26.79;47.67
61641;HTU21D;62201;49.966;8.342;2022-09-03T12:48:18;26.09;49.35
61641;HTU21D;62201;49.966;8.342;2022-09-03T12:50:46;26.05;49.63
61641;HTU21D;62201;49.966;8.342;2022-09-03T12:53:13;25.97;49.57
61641;HTU21D;62201;49.966;8.342;2022-09-03T12:55:46;25.49;50.14
61641;HTU21D;62201;49.966;8.342;2022-09-03T12:58:20;25.66;49.87
61641;HTU21D;62201;49.966;8.342;2022-09-03T13:00:49;25.97;49.37
61641;HTU21D;62201;49.966;8.342;2022-09-03T13:03:21;26.54;48.41
61641;HTU21D;62201;49.966;8.342;2022-09-03T13:05:57;26.84;46.55
61641;HTU21D;62201;49.966;8.342;2022-09-03T13:08:28;26.61;47.90
61641;HTU21D;62201;49.966;8.342;2022-09-03T13:10:55;27.11;46.58
61641;HTU21D;62201;49.966;8.342;2022-09-03T13:13:33;27.44;45.44
61641;HTU21D;62201;49.966;8.342;2022-09-03T13:16:42;27.94;42.86
61641;HTU21D;62201;49.966;8.342;2022-09-03T13:24:59;29.08;41.03
61641;HTU21D;62201;49.966;8.342;2022-09-03T13:27:38;28.46;42.03
61641;HTU21D;62201;49.966;8.342;2022-09-03T13:30:16;29.15;40.12
61641;HTU21D;62201;49.966;8.342;2022-09-03T13:32:56;28.13;41.66
61641;HTU21D;62201;49.966;8.342;2022-09-03T13:35:29;27.07;44.62
61641;HTU21D;62201;49.966;8.342;2022-09-03T13:40:54;26.05;47.38
61641;HTU21D;62201;49.966;8.342;2022-09-03T13:43:42;25.43;50.05
61641;HTU21D;62201;49.966;8.342;2022-09-03T13:46:16;25.15;51.15
61641;HTU21D;62201;49.966;8.342;2022-09-03T13:48:44;25.15;50.95
61641;HTU21D;62201;49.966;8.342;2022-09-03T13:51:43;25.28;50.44
61641;HTU21D;62201;49.966;8.342;2022-09-03T13:54:25;25.02;51.36
61641;HTU21D;62201;49.966;8.342;2022-09-03T13:57:08;24.89;52.43
61641;HTU21D;62201;49.966;8.342;2022-09-03T13:59:48;25.65;50.56
61641;HTU21D;62201;49.966;8.342;2022-09-03T14:05:11;26.28;48.76
61641;HTU21D;62201;49.966;8.342;2022-09-03T14:10:34;28.31;44.04
61641;HTU21D;62201;49.966;8.342;2022-09-03T14:13:26;28.24;44.11
61641;HTU21D;62201;49.966;8.342;2022-09-03T14:16:03;28.46;43.29
61641;HTU21D;62201;49.966;8.342;2022-09-03T14:18:40;29.42;42.00
61641;HTU21D;62201;49.966;8.342;2022-09-03T14:21:12;30.07;40.05
61641;HTU21D;62201;49.966;8.342;2022-09-03T14:23:48;29.90;39.81
61641;HTU21D;62201;49.966;8.342;2022-09-03T14:26:18;29.23;41.39
61641;HTU21D;62201;49.966;8.342;2022-09-03T14:28:49;28.11;43.58
61641;HTU21D;62201;49.966;8.342;2022-09-03T14:37:12;26.64;47.31
61641;HTU21D;62201;49.966;8.342;2022-09-03T14:39:53;26.84;47.31
61641;HTU21D;62201;49.966;8.342;2022-09-03T14:42:35;25.87;49.92
61641;HTU21D;62201;49.966;8.342;2022-09-03T14:45:09;25.32;50.91
61641;HTU21D;62201;49.966;8.342;2022-09-03T14:50:42;24.51;53.52
61641;HTU21D;62201;49.966;8.342;2022-09-03T15:04:59;24.80;53.27
61641;HTU21D;62201;49.966;8.342;2022-09-03T15:10:49;25.02;52.74
61641;HTU21D;62201;49.966;8.342;2022-09-03T15:18:24;25.04;52.46
61641;HTU21D;62201;49.966;8.342;2022-09-03T15:20:52;24.70;53.32
61641;HTU21D;62201;49.966;8.342;2022-09-03T15:23:23;24.48;53.97
61641;HTU21D;62201;49.966;8.342;2022-09-03T15:36:50;23.71;56.62
61641;HTU21D;62201;49.966;8.342;2022-09-03T15:39:31;23.67;57.09
61641;HTU21D;62201;49.966;8.342;2022-09-03T15:42:05;23.55;57.16
61641;HTU21D;62201;49.966;8.342;2022-09-03T15:44:41;23.51;57.88
61641;HTU21D;62201;49.966;8.342;2022-09-03T15:50:32;23.39;58.49
61641;HTU21D;62201;49.966;8.342;2022-09-03T15:53:03;23.32;57.85
61641;HTU21D;62201;49.966;8.342;2022-09-03T15:55:38;23.32;58.56
61641;HTU21D;62201;49.966;8.342;2022-09-03T16:01:07;23.35;58.45
61641;HTU21D;62201;49.966;8.342;2022-09-03T16:03:40;23.35;58.34
61641;HTU21D;62201;49.966;8.342;2022-09-03T16:12:15;23.14;58.79
61641;HTU21D;62201;49.966;8.342;2022-09-03T16:14:57;23.11;58.93
61641;HTU21D;62201;49.966;8.342;2022-09-03T16:17:35;23.06;59.83
61641;HTU21D;62201;49.966;8.342;2022-09-03T16:20:07;22.95;59.98
61641;HTU21D;62201;49.966;8.342;2022-09-03T16:22:53;22.07;60.76
61641;HTU21D;62201;49.966;8.342;2022-09-03T16:25:28;21.38;62.66
61641;HTU21D;62201;49.966;8.342;2022-09-03T16:33:41;20.27;66.36
61641;HTU21D;62201;49.966;8.342;2022-09-03T16:42:23;19.24;73.87
61641;HTU21D;62201;49.966;8.342;2022-09-03T16:50:38;18.55;80.59
61641;HTU21D;62201;49.966;8.342;2022-09-03T16:53:14;18.00;85.73
61641;HTU21D;62201;49.966;8.342;2022-09-03T16:56:43;17.65;88.15
61641;HTU21D;62201;49.966;8.342;2022-09-03T16:59:10;17.52;90.04
61641;HTU21D;62201;49.966;8.342;2022-09-03T17:24:40;18.50;87.84
61641;HTU21D;62201;49.966;8.342;2022-09-03T17:33:19;18.15;88.56
61641;HTU21D;62201;49.966;8.342;2022-09-03T17:36:16;18.07;89.28
61641;HTU21D;62201;49.966;8.342;2022-09-03T17:42:01;17.95;88.84
61641;HTU21D;62201;49.966;8.342;2022-09-03T17:49:51;17.85;89.71
61641;HTU21D;62201;49.966;8.342;2022-09-03T17:55:09;17.85;89.08
61641;HTU21D;62201;49.966;8.342;2022-09-03T17:57:44;17.77;89.23
61641;HTU21D;62201;49.966;8.342;2022-09-03T18:00:21;17.74;90.31
61641;HTU21D;62201;49.966;8.342;2022-09-03T18:02:57;17.75;90.69
61641;HTU21D;62201;49.966;8.342;2022-09-03T18:05:40;17.82;91.18
61641;HTU21D;62201;49.966;8.342;2022-09-03T18:08:12;17.90;92.60
61641;HTU21D;62201;49.966;8.342;2022-09-03T18:16:28;17.63;92.92
61641;HTU21D;62201;49.966;8.342;2022-09-03T18:19:36;17.60;92.20
61641;HTU21D;62201;49.966;8.342;2022-09-03T18:22:25;17.61;92.08
61641;HTU21D;62201;49.966;8.342;2022-09-03T18:25:13;17.58;91.50
61641;HTU21D;62201;49.966;8.342;2022-09-03T18:28:00;17.49;91.98
61641;HTU21D;62201;49.966;8.342;2022-09-03T18:30:46;17.41;92.25
61641;HTU21D;62201;49.966;8.342;2022-09-03T18:33:30;17.38;92.87
61641;HTU21D;62201;49.966;8.342;2022-09-03T18:36:14;17.40;92.11
61641;HTU21D;62201;49.966;8.342;2022-09-03T18:39:18;17.37;92.14
61641;HTU21D;62201;49.966;8.342;2022-09-03T18:45:50;17.33;93.44
61641;HTU21D;62201;49.966;8.342;2022-09-03T18:55:05;17.25;94.09
61641;HTU21D;62201;49.966;8.342;2022-09-03T18:58:16;17.26;95.46
61641;HTU21D;62201;49.966;8.342;2022-09-03T19:07:12;17.20;95.23
61641;HTU21D;62201;49.966;8.342;2022-09-03T19:13:19;17.19;94.55
61641;HTU21D;62201;49.966;8.342;2022-09-03T19:16:31;17.18;94.39
61641;HTU21D;62201;49.966;8.342;2022-09-03T19:22:23;17.15;93.88
61641;HTU21D;62201;49.966;8.342;2022-09-03T19:25:12;17.09;94.06
61641;HTU21D;62201;49.966;8.342;2022-09-03T19:33:52;16.93;94.11
61641;HTU21D;62201;49.966;8.342;2022-09-03T19:37:12;16.91;94.27
61641;HTU21D;62201;49.966;8.342;2022-09-03T19:46:34;16.73;95.33
61641;HTU21D;62201;49.966;8.342;2022-09-03T19:52:48;16.79;96.03
61641;HTU21D;62201;49.966;8.342;2022-09-03T19:55:38;16.78;95.94
61641;HTU21D;62201;49.966;8.342;2022-09-03T19:58:25;16.72;95.37
61641;HTU21D;62201;49.966;8.342;2022-09-03T20:01:11;16.66;95.60